createdAt,value
2018-04-28T00:00:31.113Z,99511.45
2018-04-28T00:04:33.560Z,99509.31
2018-04-28T00:08:36.033Z,99508.97
2018-04-28T00:12:38.512Z,99508.62
2018-04-28T00:16:47.703Z,99514.89
2018-04-28T00:20:50.152Z,99518.64
2018-04-28T00:29:21.559Z,99535.78
2018-04-28T00:33:24.038Z,99533.20
2018-04-28T00:37:27.258Z,99529.25
2018-04-28T00:41:31.348Z,99528.97
2018-04-28T00:50:18.391Z,99535.80
2018-04-28T00:54:26.663Z,99537.59
2018-04-28T00:58:31.088Z,99533.25
2018-04-28T01:02:33.579Z,99536.45
2018-04-28T01:06:36.054Z,99542.71
2018-04-28T01:10:38.506Z,99536.11
2018-04-28T01:14:43.774Z,99535.72
2018-04-28T01:18:52.692Z,99532.64
2018-04-28T01:22:55.970Z,99537.94
2018-04-28T01:31:28.321Z,99546.08
2018-04-28T01:35:31.615Z,99552.28
2018-04-28T01:39:42.085Z,99554.94
2018-04-28T01:43:48.591Z,99555.95
2018-04-28T01:47:58.754Z,99556.42
2018-04-28T01:52:11.186Z,99557.38
2018-04-28T01:56:22.294Z,99556.56
2018-04-28T02:00:44.468Z,99564.94
2018-04-28T02:04:52.456Z,99572.04
2018-04-28T02:09:14.424Z,99569.92
2018-04-28T02:17:57.522Z,99574.58
2018-04-28T02:26:44.837Z,99579.14
2018-04-28T02:30:54.197Z,99587.14
2018-04-28T02:35:00.592Z,99597.27
2018-04-28T02:43:50.817Z,99600.88
2018-04-28T02:48:06.614Z,99604.41
2018-04-28T02:52:18.128Z,99617.68
2018-04-28T02:56:27.184Z,99616.39
2018-04-28T03:00:33.215Z,99623.02
2018-04-28T03:04:44.568Z,99617.34
2018-04-28T03:08:49.980Z,99623.58
2018-04-28T03:12:52.458Z,99615.20
2018-04-28T03:16:57.830Z,99613.02
2018-04-28T03:21:00.322Z,99615.70
2018-04-28T03:25:05.315Z,99619.69
2018-04-28T03:29:09.560Z,99619.23
2018-04-28T03:38:22.640Z,99630.75
2018-04-28T03:42:37.279Z,99638.19
2018-04-28T03:46:39.831Z,99643.02
2018-04-28T03:50:50.917Z,99649.16
2018-04-28T03:54:57.263Z,99649.63
2018-04-28T03:59:11.581Z,99653.62
2018-04-28T04:03:18.989Z,99655.85
2018-04-28T04:07:23.308Z,99660.28
2018-04-28T04:16:14.613Z,99672.58
2018-04-28T04:25:09.588Z,99675.36
2018-04-28T04:29:32.871Z,99678.88
2018-04-28T04:33:41.284Z,99686.83
2018-04-28T04:42:40.730Z,99695.61
2018-04-28T04:46:59.428Z,99695.13
2018-04-28T04:51:05.542Z,99694.66
2018-04-28T04:55:09.945Z,99705.20
2018-04-28T05:04:12.744Z,99722.70
2018-04-28T05:08:27.128Z,99721.70
2018-04-28T05:12:40.268Z,99732.61
2018-04-28T05:16:46.131Z,99735.53
2018-04-28T05:20:57.111Z,99743.29
2018-04-28T05:25:11.179Z,99755.92
2018-04-28T05:29:34.262Z,99765.42
2018-04-28T05:33:53.777Z,99773.13
2018-04-28T05:42:56.675Z,99764.59
2018-04-28T05:47:10.868Z,99769.55
2018-04-28T05:51:30.813Z,99765.73
2018-04-28T05:55:40.666Z,99773.80
2018-04-28T05:59:51.007Z,99774.73
2018-04-28T06:04:05.474Z,99775.45
2018-04-28T06:13:07.574Z,99767.38
2018-04-28T06:21:44.672Z,99780.09
2018-04-28T06:25:47.176Z,99779.31
2018-04-28T06:29:49.629Z,99775.45
2018-04-28T06:33:52.106Z,99768.11
2018-04-28T06:37:54.592Z,99777.08
2018-04-28T06:41:57.093Z,99772.06
2018-04-28T06:45:59.551Z,99773.51
2018-04-28T06:50:02.027Z,99764.41
2018-04-28T06:54:04.514Z,99778.77
2018-04-28T06:58:06.982Z,99787.25
2018-04-28T07:02:09.453Z,99786.94
2018-04-28T07:06:11.979Z,99792.45
2018-04-28T07:10:14.469Z,99790.91
2018-04-28T07:14:16.941Z,99795.11
2018-04-28T07:18:19.491Z,99788.63
2018-04-28T07:22:22.128Z,99791.23
2018-04-28T07:26:24.685Z,99792.15
2018-04-28T07:30:27.223Z,99796.58
2018-04-28T07:34:29.706Z,99797.52
2018-04-28T07:38:32.191Z,99792.31
2018-04-28T07:42:34.726Z,99796.68
2018-04-28T07:46:37.219Z,99805.72
2018-04-28T07:50:39.709Z,99803.19
2018-04-28T07:54:42.197Z,99803.39
2018-04-28T07:58:44.653Z,99806.83
2018-04-28T08:02:47.131Z,99804.28
2018-04-28T08:06:49.620Z,99808.76
2018-04-28T08:10:52.081Z,99809.79
2018-04-28T08:14:54.567Z,99809.16
2018-04-28T08:18:57.056Z,99811.45
2018-04-28T08:22:59.533Z,99818.67
2018-04-28T08:27:02.008Z,99822.57
2018-04-28T08:31:04.510Z,99814.58
2018-04-28T08:35:06.990Z,99813.94
2018-04-28T08:39:09.492Z,99814.16
2018-04-28T08:43:11.979Z,99807.92
2018-04-28T08:47:14.473Z,99799.43
2018-04-28T08:51:16.967Z,99792.53
2018-04-28T08:55:19.451Z,99791.50
2018-04-28T08:59:21.932Z,99793.14
2018-04-28T09:03:25.427Z,99782.13
2018-04-28T09:07:39.714Z,99774.30
2018-04-28T09:11:42.198Z,99773.69
2018-04-28T09:15:44.739Z,99768.86
2018-04-28T09:19:47.186Z,99764.72
2018-04-28T09:23:49.690Z,99767.67
2018-04-28T09:27:52.236Z,99758.53
2018-04-28T09:31:54.739Z,99754.14
2018-04-28T09:35:57.215Z,99756.65
2018-04-28T09:39:59.699Z,99746.66
2018-04-28T09:44:02.179Z,99743.16
2018-04-28T09:48:04.656Z,99745.22
2018-04-28T09:52:07.134Z,99739.80
2018-04-28T09:56:09.607Z,99743.79
2018-04-28T10:00:24.963Z,99737.06
2018-04-28T10:04:27.452Z,99738.08
2018-04-28T10:08:29.894Z,99738.47
2018-04-28T10:12:32.392Z,99735.77
2018-04-28T10:16:34.847Z,99725.73
2018-04-28T10:20:37.556Z,99722.23
2018-04-28T10:24:40.037Z,99731.34
2018-04-28T10:28:42.491Z,99718.28
2018-04-28T10:32:44.971Z,99716.39
2018-04-28T10:36:47.446Z,99707.62
2018-04-28T10:40:49.938Z,99705.33
2018-04-28T10:44:52.395Z,99711.09
2018-04-28T10:48:54.878Z,99698.20
2018-04-28T10:52:57.364Z,99694.52
2018-04-28T10:56:59.808Z,99688.13
2018-04-28T11:01:02.291Z,99684.12
2018-04-28T11:05:04.774Z,99667.23
2018-04-28T11:09:07.252Z,99663.78
2018-04-28T11:13:09.691Z,99657.13
2018-04-28T11:17:12.203Z,99646.04
2018-04-28T11:21:14.685Z,99642.57
2018-04-28T11:25:17.169Z,99638.77
2018-04-28T11:29:19.637Z,99628.12
2018-04-28T11:33:22.115Z,99618.20
2018-04-28T11:37:24.573Z,99620.03
2018-04-28T11:41:27.061Z,99613.50
2018-04-28T11:45:29.546Z,99607.41
2018-04-28T11:49:32.048Z,99598.65
2018-04-28T11:53:34.532Z,99597.69
2018-04-28T11:57:37.010Z,99589.66
2018-04-28T12:01:39.461Z,99593.09
2018-04-28T12:05:41.961Z,99584.11
2018-04-28T12:09:44.419Z,99579.78
2018-04-28T12:13:46.898Z,99566.67
2018-04-28T12:17:49.382Z,99560.97
2018-04-28T12:21:51.872Z,99547.67
2018-04-28T12:25:54.355Z,99533.88
2018-04-28T12:30:08.085Z,99539.76
2018-04-28T12:34:10.567Z,99539.76
2018-04-28T12:38:13.025Z,99539.27
2018-04-28T12:42:15.518Z,99534.06
2018-04-28T12:46:18.002Z,99532.14
2018-04-28T12:50:20.498Z,99539.66
2018-04-28T12:54:22.963Z,99530.60
2018-04-28T12:58:25.426Z,99524.58
2018-04-28T13:02:27.903Z,99518.66
2018-04-28T13:06:30.478Z,99521.28
2018-04-28T13:10:32.935Z,99505.87
2018-04-28T13:14:35.410Z,99501.39
2018-04-28T13:18:37.856Z,99495.28
2018-04-28T13:22:40.353Z,99494.69
2018-04-28T13:26:42.823Z,99482.86
2018-04-28T13:30:48.667Z,99479.94
2018-04-28T13:34:51.133Z,99475.42
2018-04-28T13:38:53.605Z,99473.52
2018-04-28T13:42:56.128Z,99467.33
2018-04-28T13:46:59.513Z,99467.86
2018-04-28T13:51:01.996Z,99460.42
2018-04-28T13:55:04.494Z,99458.02
2018-04-28T13:59:06.966Z,99455.34
2018-04-28T14:03:09.439Z,99447.03
2018-04-28T14:07:11.886Z,99444.78
2018-04-28T14:11:14.366Z,99435.05
2018-04-28T14:15:16.837Z,99432.48
2018-04-28T14:19:19.313Z,99424.72
2018-04-28T14:23:21.778Z,99424.58
2018-04-28T14:27:24.253Z,99419.31
2018-04-28T14:31:26.719Z,99416.13
2018-04-28T14:35:29.216Z,99411.31
2018-04-28T14:39:31.679Z,99409.08
2018-04-28T14:43:34.150Z,99403.22
2018-04-28T14:47:36.623Z,99392.31
2018-04-28T14:51:39.071Z,99396.83
2018-04-28T14:55:41.555Z,99387.26
2018-04-28T14:59:44.010Z,99387.38
2018-04-28T15:03:46.486Z,99383.31
2018-04-28T15:07:48.968Z,99379.11
2018-04-28T15:11:51.441Z,99385.77
2018-04-28T15:15:53.899Z,99378.93
2018-04-28T15:19:57.298Z,99386.17
2018-04-28T15:23:59.772Z,99380.12
2018-04-28T15:28:02.239Z,99378.05
2018-04-28T15:32:04.705Z,99383.45
2018-04-28T15:36:07.176Z,99380.80
2018-04-28T15:40:09.623Z,99381.45
2018-04-28T15:44:12.101Z,99375.73
2018-04-28T15:48:14.592Z,99381.36
2018-04-28T15:52:17.039Z,99375.67
2018-04-28T15:56:19.513Z,99369.36
2018-04-28T16:00:22.000Z,99368.80
2018-04-28T16:04:24.469Z,99359.98
2018-04-28T16:08:26.936Z,99366.92
2018-04-28T16:12:29.415Z,99361.70
2018-04-28T16:16:31.886Z,99352.78
2018-04-28T16:20:34.331Z,99352.62
2018-04-28T16:24:36.814Z,99339.89
2018-04-28T16:28:39.267Z,99344.06
2018-04-28T16:32:41.746Z,99330.81
2018-04-28T16:36:44.243Z,99332.79
2018-04-28T16:40:46.721Z,99323.13
2018-04-28T16:44:49.224Z,99327.52
2018-04-28T16:48:51.681Z,99330.28
2018-04-28T16:52:54.179Z,99327.58
2018-04-28T16:56:56.668Z,99332.83
2018-04-28T17:00:59.145Z,99327.45
2018-04-28T17:05:01.598Z,99327.91
2018-04-28T17:09:04.091Z,99327.86
2018-04-28T17:13:06.541Z,99326.70
2018-04-28T17:17:09.098Z,99320.67
2018-04-28T17:21:11.480Z,99322.47
2018-04-28T17:25:13.967Z,99321.66
2018-04-28T17:29:16.427Z,99326.46
2018-04-28T17:33:18.910Z,99327.56
2018-04-28T17:37:21.399Z,99331.09
2018-04-28T17:41:23.865Z,99324.79
2018-04-28T17:45:26.342Z,99328.70
2018-04-28T17:49:28.797Z,99331.80
2018-04-28T17:53:31.279Z,99338.03
2018-04-28T17:57:33.758Z,99342.31
2018-04-28T18:01:36.238Z,99342.58
2018-04-28T18:05:38.735Z,99341.25
2018-04-28T18:09:41.193Z,99344.30
2018-04-28T18:13:43.683Z,99346.49
2018-04-28T18:17:46.143Z,99342.84
2018-04-28T18:21:48.632Z,99341.59
2018-04-28T18:25:51.088Z,99346.47
2018-04-28T18:29:53.574Z,99358.06
2018-04-28T18:33:56.058Z,99357.95
2018-04-28T18:37:58.527Z,99360.55
2018-04-28T18:42:01.026Z,99363.30
2018-04-28T18:46:03.536Z,99366.70
2018-04-28T18:50:05.984Z,99368.31
2018-04-28T18:54:08.464Z,99372.59
2018-04-28T18:58:10.942Z,99377.85
2018-04-28T19:02:13.430Z,99375.77
2018-04-28T19:06:15.881Z,99371.53
2018-04-28T19:10:18.356Z,99375.35
2018-04-28T19:14:20.857Z,99369.25
2018-04-28T19:18:23.319Z,99376.33
2018-04-28T19:22:25.798Z,99370.52
2018-04-28T19:26:29.235Z,99373.47
2018-04-28T19:30:31.692Z,99372.75
2018-04-28T19:34:34.179Z,99370.44
2018-04-28T19:38:36.660Z,99370.71
2018-04-28T19:42:39.138Z,99367.92
2018-04-28T19:46:41.634Z,99367.30
2018-04-28T19:50:44.121Z,99363.44
2018-04-28T19:54:46.598Z,99357.05
2018-04-28T19:58:49.079Z,99361.38
2018-04-28T20:02:51.546Z,99364.87
2018-04-28T20:06:54.028Z,99359.36
2018-04-28T20:10:56.511Z,99358.81
2018-04-28T20:14:58.992Z,99365.03
2018-04-28T20:19:01.444Z,99367.59
2018-04-28T20:23:15.663Z,99365.62
2018-04-28T20:27:18.145Z,99365.55
2018-04-28T20:31:20.642Z,99370.41
2018-04-28T20:35:23.121Z,99367.30
2018-04-28T20:39:25.601Z,99378.56
2018-04-28T20:43:28.073Z,99378.12
2018-04-28T20:47:30.528Z,99379.75
2018-04-28T20:51:33.006Z,99385.16
2018-04-28T20:55:35.491Z,99386.00
2018-04-28T20:59:37.975Z,99386.86
2018-04-28T21:03:40.458Z,99382.84
2018-04-28T21:07:42.949Z,99394.48
2018-04-28T21:11:45.407Z,99390.93
2018-04-28T21:15:47.899Z,99387.43
2018-04-28T21:19:50.356Z,99384.88
2018-04-28T21:23:52.835Z,99384.22
2018-04-28T21:27:55.320Z,99383.59
2018-04-28T21:31:57.800Z,99380.77
2018-04-28T21:36:00.289Z,99378.22
2018-04-28T21:40:02.747Z,99382.28
2018-04-28T21:44:05.223Z,99373.78
2018-04-28T21:48:07.707Z,99375.25
2018-04-28T21:52:10.193Z,99383.42
2018-04-28T21:56:12.679Z,99385.31
2018-04-28T22:00:15.138Z,99386.34
2018-04-28T22:04:17.627Z,99387.28
2018-04-28T22:08:20.110Z,99386.61
2018-04-28T22:12:22.613Z,99382.19
2018-04-28T22:16:25.090Z,99393.38
2018-04-28T22:20:27.572Z,99383.66
2018-04-28T22:24:30.052Z,99389.09
2018-04-28T22:28:32.507Z,99380.62
2018-04-28T22:32:34.993Z,99377.20
2018-04-28T22:36:37.479Z,99379.11
2018-04-28T22:40:39.962Z,99374.38
2018-04-28T22:44:42.448Z,99378.96
2018-04-28T22:48:44.945Z,99372.56
2018-04-28T22:52:47.394Z,99368.37
2018-04-28T22:56:49.895Z,99370.03
2018-04-28T23:00:52.351Z,99365.43
2018-04-28T23:04:54.840Z,99363.13
2018-04-28T23:08:57.285Z,99354.09
2018-04-28T23:12:59.770Z,99355.02
2018-04-28T23:17:02.229Z,99352.28
2018-04-28T23:21:04.719Z,99346.47
2018-04-28T23:25:07.201Z,99349.94
2018-04-28T23:29:09.699Z,99352.06
2018-04-28T23:33:12.160Z,99349.17
2018-04-28T23:37:14.646Z,99352.22
2018-04-28T23:41:17.127Z,99348.56
2018-04-28T23:45:19.618Z,99333.90
2018-04-28T23:49:22.076Z,99338.80
2018-04-28T23:53:24.564Z,99334.67
2018-04-28T23:57:27.098Z,99334.06
